createdAt,value
2018-07-25T00:00:23.867Z,7.27
2018-07-25T00:02:58.290Z,6.93
2018-07-25T00:05:32.601Z,7.60
2018-07-25T00:08:07.046Z,6.83
2018-07-25T00:10:47.764Z,7.37
2018-07-25T00:13:23.564Z,7.53
2018-07-25T00:15:58.219Z,7.63
2018-07-25T00:18:33.176Z,7.80
2018-07-25T00:21:07.660Z,7.20
2018-07-25T00:23:42.205Z,7.07
2018-07-25T00:26:16.616Z,7.57
2018-07-25T00:28:51.124Z,6.80
2018-07-25T00:31:25.882Z,7.80
2018-07-25T00:34:00.957Z,7.00
2018-07-25T00:36:35.813Z,6.97
2018-07-25T00:39:11.006Z,6.93
2018-07-25T00:41:45.994Z,6.57
2018-07-25T00:44:20.771Z,6.83
2018-07-25T00:46:55.450Z,6.60
2018-07-25T00:49:31.270Z,6.40
2018-07-25T00:52:05.994Z,6.70
2018-07-25T00:54:40.552Z,6.93
2018-07-25T00:57:14.974Z,6.90
2018-07-25T00:59:49.405Z,7.00
2018-07-25T01:02:24.390Z,8.00
2018-07-25T01:04:58.808Z,6.63
2018-07-25T01:07:33.413Z,6.20
2018-07-25T01:10:07.936Z,5.87
2018-07-25T01:12:42.934Z,6.17
2018-07-25T01:15:17.560Z,6.73
2018-07-25T01:17:52.071Z,6.43
2018-07-25T01:20:26.935Z,6.00
2018-07-25T01:23:01.468Z,8.03
2018-07-25T01:25:35.820Z,7.03
2018-07-25T01:28:10.290Z,7.23
2018-07-25T01:30:44.963Z,7.30
2018-07-25T01:33:19.820Z,7.07
2018-07-25T01:35:54.852Z,7.23
2018-07-25T01:38:29.308Z,7.13
2018-07-25T01:41:03.974Z,6.50
2018-07-25T01:43:38.884Z,7.30
2018-07-25T01:46:14.133Z,6.93
2018-07-25T01:48:48.617Z,6.93
2018-07-25T01:51:23.245Z,5.73
2018-07-25T01:53:57.779Z,7.47
2018-07-25T01:56:32.833Z,7.43
2018-07-25T01:59:07.693Z,6.73
2018-07-25T02:01:42.418Z,6.63
2018-07-25T02:04:17.285Z,7.77
2018-07-25T02:06:52.087Z,7.13
2018-07-25T02:09:27.380Z,7.40
2018-07-25T02:12:01.804Z,7.83
2018-07-25T02:14:36.414Z,6.77
2018-07-25T02:17:11.153Z,7.00
2018-07-25T02:19:45.755Z,7.43
2018-07-25T02:22:20.373Z,7.83
2018-07-25T02:24:54.980Z,6.90
2018-07-25T02:27:29.702Z,7.40
2018-07-25T02:30:04.429Z,7.43
2018-07-25T02:32:38.882Z,6.70
2018-07-25T02:35:13.393Z,7.87
2018-07-25T02:37:47.677Z,6.70
2018-07-25T02:40:22.520Z,7.47
2018-07-25T02:42:57.168Z,7.33
2018-07-25T02:45:35.850Z,6.83
2018-07-25T02:48:10.945Z,7.60
2018-07-25T02:50:45.365Z,7.90
2018-07-25T02:53:19.959Z,7.97
2018-07-25T02:55:54.605Z,7.37
2018-07-25T02:58:29.073Z,7.63
2018-07-25T03:01:03.533Z,7.00
2018-07-25T03:03:38.141Z,6.83
2018-07-25T03:06:12.709Z,7.47
2018-07-25T03:08:47.349Z,8.33
2018-07-25T03:11:22.124Z,7.30
2018-07-25T03:13:56.760Z,7.70
2018-07-25T03:16:31.301Z,8.17
2018-07-25T03:19:05.757Z,8.47
2018-07-25T03:21:40.424Z,8.40
2018-07-25T03:24:15.038Z,8.30
2018-07-25T03:26:49.584Z,8.70
2018-07-25T03:29:24.088Z,7.47
2018-07-25T03:31:58.638Z,8.03
2018-07-25T03:34:33.057Z,7.80
2018-07-25T03:37:07.536Z,8.50
2018-07-25T03:39:41.916Z,8.83
2018-07-25T03:42:16.378Z,8.53
2018-07-25T03:44:50.983Z,8.60
2018-07-25T03:47:25.416Z,8.40
2018-07-25T03:50:00.102Z,8.63
2018-07-25T03:52:34.814Z,9.50
2018-07-25T03:55:09.649Z,9.03
2018-07-25T03:57:44.110Z,9.20
2018-07-25T04:00:18.509Z,9.37
2018-07-25T04:02:53.530Z,8.80
2018-07-25T04:05:27.972Z,9.20
2018-07-25T04:08:02.551Z,8.93
2018-07-25T04:10:37.114Z,9.90
2018-07-25T04:13:11.687Z,10.43
2018-07-25T04:15:46.368Z,10.33
2018-07-25T04:18:20.985Z,10.13
2018-07-25T04:20:55.699Z,10.70
2018-07-25T04:23:30.316Z,11.03
2018-07-25T04:26:05.098Z,11.17
2018-07-25T04:28:39.504Z,11.00
2018-07-25T04:31:13.897Z,11.27
2018-07-25T04:33:48.267Z,11.80
2018-07-25T04:36:22.821Z,12.07
2018-07-25T04:38:57.457Z,12.33
2018-07-25T04:41:32.146Z,11.77
2018-07-25T04:44:06.820Z,11.53
2018-07-25T04:46:41.500Z,11.57
2018-07-25T04:49:16.199Z,12.33
2018-07-25T04:51:50.856Z,13.00
2018-07-25T04:54:25.378Z,12.20
2018-07-25T04:56:59.841Z,12.33
2018-07-25T04:59:34.329Z,11.23
2018-07-25T05:02:09.019Z,12.30
2018-07-25T05:04:43.621Z,10.57
2018-07-25T05:07:18.170Z,12.20
2018-07-25T05:09:52.665Z,10.00
2018-07-25T05:12:27.233Z,11.10
2018-07-25T05:15:02.078Z,11.70
2018-07-25T05:17:36.666Z,11.43
2018-07-25T05:20:11.271Z,12.87
2018-07-25T05:22:46.527Z,11.70
2018-07-25T05:25:21.272Z,11.63
2018-07-25T05:27:55.849Z,11.80
2018-07-25T05:30:30.555Z,11.87
2018-07-25T05:33:05.231Z,12.50
2018-07-25T05:35:39.638Z,10.77
2018-07-25T05:38:14.114Z,10.13
2018-07-25T05:40:48.476Z,12.43
2018-07-25T05:46:21.901Z,11.00
2018-07-25T05:48:56.882Z,12.47
2018-07-25T05:51:31.473Z,12.23
2018-07-25T05:54:06.070Z,13.23
2018-07-25T05:56:40.589Z,13.60
2018-07-25T05:59:15.148Z,11.73
2018-07-25T06:01:49.845Z,12.20
2018-07-25T06:04:24.305Z,12.50
2018-07-25T06:06:58.734Z,10.87
2018-07-25T06:09:33.173Z,10.50
2018-07-25T06:12:07.634Z,10.30
2018-07-25T06:14:42.218Z,10.33
2018-07-25T06:17:16.670Z,9.80
2018-07-25T06:19:51.277Z,9.00
2018-07-25T06:22:25.817Z,9.93
2018-07-25T06:25:00.204Z,11.80
2018-07-25T06:27:34.920Z,9.50
2018-07-25T06:30:09.429Z,9.00
2018-07-25T06:32:44.021Z,9.83
2018-07-25T06:35:18.602Z,10.00
2018-07-25T06:37:53.318Z,10.73
2018-07-25T06:40:27.921Z,10.47
2018-07-25T06:43:02.382Z,8.93
2018-07-25T06:45:36.795Z,9.97
2018-07-25T06:48:11.232Z,9.60
2018-07-25T06:50:45.678Z,10.90
2018-07-25T06:53:20.212Z,10.07
2018-07-25T06:55:54.561Z,9.80
2018-07-25T06:58:28.930Z,9.57
2018-07-25T07:01:03.327Z,10.20
2018-07-25T07:03:38.218Z,9.33
2018-07-25T07:06:12.790Z,8.70
2018-07-25T07:08:47.421Z,8.80
2018-07-25T07:11:21.889Z,9.57
2018-07-25T07:13:56.805Z,10.00
2018-07-25T07:16:31.438Z,9.17
2018-07-25T07:19:06.063Z,8.93
2018-07-25T07:21:40.650Z,8.03
2018-07-25T07:24:15.261Z,8.60
2018-07-25T07:26:49.796Z,8.37
2018-07-25T07:29:24.199Z,8.20
2018-07-25T07:31:58.542Z,8.83
2018-07-25T07:34:33.185Z,8.73
2018-07-25T07:37:07.660Z,7.40
2018-07-25T07:39:42.281Z,7.60
2018-07-25T07:42:16.744Z,8.13
2018-07-25T07:44:51.120Z,8.37
2018-07-25T07:47:25.961Z,8.10
2018-07-25T07:50:00.496Z,8.33
2018-07-25T07:52:35.188Z,8.53
2018-07-25T07:55:09.704Z,8.07
2018-07-25T07:57:44.074Z,7.97
2018-07-25T08:00:18.760Z,8.30
2018-07-25T08:02:53.810Z,8.00
2018-07-25T08:05:28.373Z,7.47
2018-07-25T08:08:02.986Z,7.77
2018-07-25T08:10:37.568Z,8.57
2018-07-25T08:13:12.052Z,9.23
2018-07-25T08:15:46.753Z,7.73
2018-07-25T08:18:21.404Z,8.17
2018-07-25T08:20:55.923Z,8.57
2018-07-25T08:23:30.298Z,8.90
2018-07-25T08:26:04.824Z,9.07
2018-07-25T08:28:39.148Z,8.27
2018-07-25T08:31:13.547Z,8.90
2018-07-25T08:33:48.297Z,8.80
2018-07-25T08:36:22.572Z,8.70
2018-07-25T08:38:57.035Z,9.30
2018-07-25T08:41:31.440Z,9.47
2018-07-25T08:44:06.952Z,8.40
2018-07-25T08:46:41.522Z,8.70
2018-07-25T08:49:15.775Z,9.10
2018-07-25T08:51:50.366Z,10.33
2018-07-25T08:54:26.970Z,9.47
2018-07-25T08:57:01.268Z,9.53
2018-07-25T08:59:38.699Z,8.80
2018-07-25T09:02:36.163Z,9.10
2018-07-25T09:05:22.859Z,10.03
2018-07-25T09:08:01.386Z,9.33
2018-07-25T09:10:48.341Z,10.37
2018-07-25T09:13:30.923Z,10.27
2018-07-25T09:16:05.239Z,9.67
2018-07-25T09:24:39.850Z,10.03
2018-07-25T09:27:14.561Z,8.77
2018-07-25T09:30:05.121Z,10.20
2018-07-25T09:32:39.500Z,9.67
2018-07-25T09:35:13.895Z,8.10
2018-07-25T09:37:48.398Z,7.47
2018-07-25T09:40:22.799Z,8.87
2018-07-25T09:42:57.273Z,8.27
2018-07-25T09:45:31.535Z,8.97
2018-07-25T09:48:06.291Z,8.30
2018-07-25T09:50:41.001Z,7.07
2018-07-25T09:53:15.655Z,8.57
2018-07-25T09:55:49.831Z,7.40
2018-07-25T09:58:24.263Z,7.28
2018-07-25T10:00:58.700Z,8.63
2018-07-25T10:03:33.089Z,7.87
2018-07-25T10:06:07.391Z,7.55
2018-07-25T10:08:41.815Z,7.80
2018-07-25T10:11:16.236Z,8.05
2018-07-25T10:13:51.419Z,6.75
2018-07-25T10:16:25.913Z,6.83
2018-07-25T10:19:00.380Z,6.85
2018-07-25T10:21:35.068Z,7.20
2018-07-25T10:24:09.457Z,8.60
2018-07-25T10:26:44.012Z,7.28
2018-07-25T10:29:18.220Z,6.40
2018-07-25T10:31:52.598Z,6.78
2018-07-25T10:34:27.307Z,6.03
2018-07-25T10:37:01.966Z,6.17
2018-07-25T10:39:36.256Z,6.95
2018-07-25T10:42:10.684Z,7.45
2018-07-25T10:44:45.236Z,6.58
2018-07-25T10:47:19.683Z,5.10
2018-07-25T10:49:53.999Z,4.90
2018-07-25T10:55:27.836Z,4.95
2018-07-25T10:58:01.323Z,5.28
2018-07-25T11:00:35.702Z,5.22
2018-07-25T11:06:09.792Z,5.22
2018-07-25T11:08:44.267Z,5.00
2018-07-25T11:11:18.717Z,5.05
2018-07-25T11:13:53.140Z,4.78
2018-07-25T11:16:27.603Z,5.10
2018-07-25T11:19:01.929Z,5.03
2018-07-25T11:21:36.259Z,5.37
2018-07-25T11:24:10.972Z,5.08
2018-07-25T11:26:45.417Z,4.97
2018-07-25T11:29:20.454Z,5.17
2018-07-25T11:31:54.881Z,4.92
2018-07-25T11:34:29.706Z,4.97
2018-07-25T11:37:04.008Z,4.80
2018-07-25T11:39:38.460Z,5.42
2018-07-25T11:42:12.849Z,5.45
2018-07-25T11:44:47.172Z,5.62
2018-07-25T11:47:21.585Z,5.03
2018-07-25T11:49:55.999Z,4.62
2018-07-25T11:52:30.251Z,5.33
2018-07-25T11:55:05.344Z,5.50
2018-07-25T11:57:39.932Z,4.90
2018-07-25T12:00:14.472Z,4.90
2018-07-25T12:02:48.688Z,5.10
2018-07-25T12:05:23.161Z,5.03
2018-07-25T12:07:57.589Z,4.67
2018-07-25T12:10:32.308Z,5.90
2018-07-25T12:13:07.034Z,5.47
2018-07-25T12:15:41.638Z,5.27
2018-07-25T12:18:16.085Z,5.33
2018-07-25T12:20:50.353Z,6.07
2018-07-25T12:23:24.811Z,5.00
2018-07-25T12:25:59.246Z,4.70
2018-07-25T12:28:33.820Z,5.03
2018-07-25T12:31:08.552Z,5.40
2018-07-25T12:33:42.856Z,5.10
2018-07-25T12:36:17.488Z,5.30
2018-07-25T12:38:51.675Z,4.90
2018-07-25T12:41:25.983Z,5.10
2018-07-25T12:44:00.321Z,5.10
2018-07-25T12:46:34.709Z,5.30
2018-07-25T12:49:09.087Z,4.90
2018-07-25T12:51:43.563Z,4.77
2018-07-25T12:54:17.973Z,5.17
2018-07-25T12:56:52.503Z,5.33
2018-07-25T12:59:26.831Z,4.70
2018-07-25T13:02:01.248Z,5.03
2018-07-25T13:04:35.740Z,5.17
2018-07-25T13:07:10.097Z,5.60
2018-07-25T13:09:44.505Z,5.83
2018-07-25T13:12:18.819Z,5.50
2018-07-25T13:14:53.159Z,5.27
2018-07-25T13:17:27.522Z,5.70
2018-07-25T13:20:01.902Z,5.80
2018-07-25T13:22:36.275Z,6.60
2018-07-25T13:25:10.728Z,6.87
2018-07-25T13:27:45.293Z,7.40
2018-07-25T13:30:19.623Z,7.20
2018-07-25T13:32:54.355Z,7.37
2018-07-25T13:35:28.890Z,7.33
2018-07-25T13:38:03.683Z,7.33
2018-07-25T13:40:37.969Z,5.83
2018-07-25T13:43:12.389Z,5.60
2018-07-25T13:45:48.222Z,5.07
2018-07-25T13:48:23.041Z,5.30
2018-07-25T13:50:57.682Z,5.60
2018-07-25T13:53:32.329Z,6.37
2018-07-25T13:56:06.908Z,6.43
2018-07-25T13:58:41.377Z,6.00
2018-07-25T14:01:15.834Z,5.60
2018-07-25T14:03:50.261Z,5.47
2018-07-25T14:06:24.910Z,6.17
2018-07-25T14:08:59.528Z,5.40
2018-07-25T14:11:34.332Z,5.63
2018-07-25T14:14:09.264Z,6.43
2018-07-25T14:16:43.666Z,5.30
2018-07-25T14:19:18.273Z,5.67
2018-07-25T14:21:52.808Z,5.37
2018-07-25T14:24:27.343Z,5.33
2018-07-25T14:27:01.721Z,5.13
2018-07-25T14:29:36.054Z,5.37
2018-07-25T14:32:11.346Z,5.10
2018-07-25T14:34:50.043Z,4.63
2018-07-25T14:37:25.694Z,5.47
2018-07-25T14:40:00.327Z,4.70
2018-07-25T14:42:34.819Z,5.10
2018-07-25T14:45:09.251Z,4.20
2018-07-25T14:47:43.782Z,4.37
2018-07-25T14:50:18.788Z,4.63
2018-07-25T14:52:53.266Z,5.07
2018-07-25T14:55:27.865Z,4.40
2018-07-25T14:58:02.580Z,4.50
2018-07-25T15:00:37.483Z,5.03
2018-07-25T15:03:12.065Z,4.93
2018-07-25T15:05:46.965Z,4.87
2018-07-25T15:08:23.250Z,4.97
2018-07-25T15:10:58.568Z,5.23
2018-07-25T15:13:33.057Z,5.13
2018-07-25T15:16:07.862Z,5.00
2018-07-25T15:18:42.508Z,4.43
2018-07-25T15:21:16.979Z,5.30
2018-07-25T15:24:00.058Z,5.17
2018-07-25T15:26:34.717Z,5.57
2018-07-25T15:29:09.401Z,4.73
2018-07-25T15:31:43.945Z,4.57
2018-07-25T15:34:18.413Z,4.60
2018-07-25T15:36:53.921Z,4.33
2018-07-25T15:39:29.126Z,4.07
2018-07-25T15:42:03.672Z,3.60
2018-07-25T15:47:37.535Z,4.20
2018-07-25T15:50:24.313Z,3.83
2018-07-25T15:52:58.813Z,4.00
2018-07-25T15:55:33.710Z,4.00
2018-07-25T15:58:08.273Z,4.00
2018-07-25T16:00:43.240Z,3.63
2018-07-25T16:03:27.609Z,4.90
2018-07-25T16:06:02.524Z,4.83
2018-07-25T16:08:37.161Z,4.50
2018-07-25T16:11:12.002Z,5.00
2018-07-25T16:13:46.684Z,4.40
2018-07-25T16:16:21.096Z,3.87
2018-07-25T16:18:55.523Z,3.97
2018-07-25T16:21:29.927Z,4.30
2018-07-25T16:24:04.349Z,4.60
2018-07-25T16:26:38.750Z,4.60
2018-07-25T16:29:13.441Z,4.40
2018-07-25T16:31:47.812Z,4.67
2018-07-25T16:37:19.152Z,5.17
2018-07-25T16:39:53.460Z,4.47
2018-07-25T16:42:27.872Z,4.70
2018-07-25T16:45:02.312Z,4.20
2018-07-25T16:47:36.883Z,4.47
2018-07-25T16:50:11.259Z,5.03
2018-07-25T16:52:45.617Z,4.60
2018-07-25T16:55:20.086Z,4.93
2018-07-25T16:57:54.532Z,5.13
2018-07-25T17:00:28.935Z,5.20
2018-07-25T17:03:03.375Z,5.07
2018-07-25T17:05:37.751Z,4.70
2018-07-25T17:08:12.127Z,5.50
2018-07-25T17:10:46.500Z,5.37
2018-07-25T17:13:20.961Z,5.17
2018-07-25T17:15:55.359Z,5.03
2018-07-25T17:18:30.088Z,4.73
2018-07-25T17:21:04.391Z,5.47
2018-07-25T17:23:38.840Z,4.90
2018-07-25T17:26:13.186Z,5.53
2018-07-25T17:28:47.395Z,6.10
2018-07-25T17:31:21.816Z,5.60
2018-07-25T17:33:56.104Z,6.40
2018-07-25T17:36:30.523Z,5.87
2018-07-25T17:39:08.293Z,5.83
2018-07-25T17:41:42.895Z,5.50
2018-07-25T17:44:17.193Z,5.13
2018-07-25T17:47:01.467Z,5.03
2018-07-25T17:49:35.900Z,5.70
2018-07-25T17:52:17.311Z,5.17
2018-07-25T17:54:51.951Z,5.63
2018-07-25T17:57:26.375Z,6.30
2018-07-25T18:00:00.796Z,6.47
2018-07-25T18:02:35.226Z,6.57
2018-07-25T18:05:10.389Z,7.53
2018-07-25T18:07:44.709Z,6.40
2018-07-25T18:10:21.295Z,6.73
2018-07-25T18:13:01.106Z,5.83
2018-07-25T18:15:35.898Z,5.60
2018-07-25T18:18:10.275Z,5.40
2018-07-25T18:20:44.588Z,5.57
2018-07-25T18:23:18.891Z,5.77
2018-07-25T18:25:53.203Z,5.30
2018-07-25T18:28:27.867Z,5.30
2018-07-25T18:31:02.167Z,5.07
2018-07-25T18:33:36.567Z,5.53
2018-07-25T18:36:10.999Z,5.37
2018-07-25T18:38:45.423Z,5.17
2018-07-25T18:41:19.904Z,7.13
2018-07-25T18:43:54.295Z,7.03
2018-07-25T18:46:29.107Z,6.30
2018-07-25T18:49:03.728Z,5.83
2018-07-25T18:51:38.279Z,5.73
2018-07-25T18:57:11.793Z,6.10
2018-07-25T18:59:46.184Z,5.40
2018-07-25T19:02:20.483Z,5.10
2018-07-25T19:04:54.859Z,5.40
2018-07-25T19:07:29.367Z,5.73
2018-07-25T19:10:03.760Z,5.37
2018-07-25T19:12:38.143Z,4.90
2018-07-25T19:15:18.167Z,4.87
2018-07-25T19:17:52.897Z,5.07
2018-07-25T19:20:27.544Z,5.10
2018-07-25T19:23:01.960Z,5.10
2018-07-25T19:25:36.368Z,4.87
2018-07-25T19:28:10.720Z,4.60
2018-07-25T19:30:45.210Z,4.67
2018-07-25T19:33:19.616Z,4.97
2018-07-25T19:35:54.054Z,4.87
2018-07-25T19:38:28.584Z,5.10
2018-07-25T19:41:03.976Z,5.33
2018-07-25T19:43:38.392Z,4.47
2018-07-25T19:46:12.950Z,4.33
2018-07-25T19:48:47.445Z,4.60
2018-07-25T19:51:21.961Z,4.50
2018-07-25T19:53:56.488Z,4.33
2018-07-25T19:56:31.090Z,4.50
2018-07-25T19:59:05.837Z,4.17
2018-07-25T20:01:40.284Z,4.67
2018-07-25T20:04:14.792Z,4.83
2018-07-25T20:06:49.772Z,4.27
2018-07-25T20:09:24.387Z,4.13
2018-07-25T20:11:58.827Z,4.53
2018-07-25T20:14:38.553Z,4.00
2018-07-25T20:17:14.000Z,4.20
2018-07-25T20:19:48.695Z,4.83
2018-07-25T20:22:23.017Z,4.37
2018-07-25T20:24:57.341Z,4.67
2018-07-25T20:27:31.989Z,4.30
2018-07-25T20:30:08.124Z,4.30
2018-07-25T20:32:42.483Z,4.63
2018-07-25T20:35:16.861Z,4.50
2018-07-25T20:37:51.496Z,4.63
2018-07-25T20:40:25.989Z,4.80
2018-07-25T20:43:00.521Z,4.57
2018-07-25T20:45:35.061Z,4.80
2018-07-25T20:48:09.512Z,4.60
2018-07-25T20:50:43.959Z,4.50
2018-07-25T20:53:18.374Z,4.53
2018-07-25T20:55:52.776Z,4.40
2018-07-25T20:58:27.217Z,4.50
2018-07-25T21:01:01.857Z,4.77
2018-07-25T21:03:36.354Z,5.00
2018-07-25T21:06:11.000Z,4.73
2018-07-25T21:08:45.585Z,4.67
2018-07-25T21:11:20.488Z,5.07
2018-07-25T21:13:55.091Z,4.50
2018-07-25T21:16:29.641Z,4.53
2018-07-25T21:19:04.241Z,4.87
2018-07-25T21:21:38.802Z,4.63
2018-07-25T21:24:13.297Z,4.83
2018-07-25T21:26:47.752Z,5.20
2018-07-25T21:29:22.476Z,4.60
2018-07-25T21:31:57.139Z,5.43
2018-07-25T21:34:31.721Z,4.33
2018-07-25T21:37:06.277Z,4.93
2018-07-25T21:39:40.668Z,5.20
2018-07-25T21:42:15.535Z,5.10
2018-07-25T21:44:50.164Z,5.23
2018-07-25T21:47:24.724Z,5.10
2018-07-25T21:49:59.338Z,4.87
2018-07-25T21:52:34.017Z,5.07
2018-07-25T21:55:08.249Z,5.10
2018-07-25T21:57:42.711Z,5.33
2018-07-25T22:00:17.902Z,5.43
2018-07-25T22:02:52.583Z,5.00
2018-07-25T22:05:27.080Z,5.07
2018-07-25T22:08:01.737Z,5.07
2018-07-25T22:10:36.332Z,4.70
2018-07-25T22:13:11.011Z,5.07
2018-07-25T22:15:45.719Z,5.40
2018-07-25T22:18:20.196Z,5.40
2018-07-25T22:20:54.900Z,4.90
2018-07-25T22:23:29.565Z,5.23
2018-07-25T22:26:04.032Z,5.27
2018-07-25T22:28:38.572Z,5.83
2018-07-25T22:31:13.328Z,5.03
2018-07-25T22:33:48.313Z,5.33
2018-07-25T22:36:22.714Z,5.73
2018-07-25T22:38:57.388Z,5.90
2018-07-25T22:41:32.078Z,5.60
2018-07-25T22:44:06.921Z,5.97
2018-07-25T22:46:41.326Z,5.90
2018-07-25T22:49:15.805Z,6.00
2018-07-25T22:51:50.241Z,6.03
2018-07-25T22:54:24.902Z,5.47
2018-07-25T22:56:59.400Z,5.80
2018-07-25T22:59:34.037Z,5.70
2018-07-25T23:02:08.732Z,6.03
2018-07-25T23:04:43.144Z,5.87
2018-07-25T23:07:17.557Z,6.07
2018-07-25T23:09:52.140Z,5.87
2018-07-25T23:12:26.837Z,5.57
2018-07-25T23:15:01.645Z,5.87
2018-07-25T23:17:35.976Z,6.10
2018-07-25T23:20:10.419Z,5.73
2018-07-25T23:22:54.627Z,5.80
2018-07-25T23:25:30.153Z,5.90
2018-07-25T23:28:04.658Z,6.33
2018-07-25T23:30:39.320Z,6.03
2018-07-25T23:33:13.972Z,5.73
2018-07-25T23:35:48.455Z,6.17
2018-07-25T23:38:22.900Z,5.90
2018-07-25T23:40:57.536Z,6.20
2018-07-25T23:43:32.034Z,5.60
2018-07-25T23:46:06.476Z,5.77
2018-07-25T23:48:41.189Z,5.57
2018-07-25T23:51:15.797Z,5.87
2018-07-25T23:56:49.764Z,5.53
2018-07-25T23:59:24.325Z,6.13
